sensor_id;sensor_type;location;lat;lon;timestamp;P1;durP1;ratioP1;P2;durP2;ratioP2
68300;SDS011;55146;47.468;18.806;2023-05-07T00:00:08;9.10;;;5.95;;
68300;SDS011;55146;47.468;18.806;2023-05-07T00:02:34;9.27;;;6.28;;
68300;SDS011;55146;47.468;18.806;2023-05-07T00:05:01;9.63;;;7.03;;
68300;SDS011;55146;47.468;18.806;2023-05-07T00:07:27;9.13;;;5.93;;
68300;SDS011;55146;47.468;18.806;2023-05-07T00:09:53;8.13;;;6.00;;
68300;SDS011;55146;47.468;18.806;2023-05-07T00:12:18;10.50;;;6.17;;
68300;SDS011;55146;47.468;18.806;2023-05-07T00:14:43;9.13;;;6.67;;
68300;SDS011;55146;47.468;18.806;2023-05-07T00:17:09;9.03;;;5.90;;
68300;SDS011;55146;47.468;18.806;2023-05-07T00:19:34;8.93;;;6.47;;
68300;SDS011;55146;47.468;18.806;2023-05-07T00:22:00;8.40;;;5.77;;
68300;SDS011;55146;47.468;18.806;2023-05-07T00:24:25;12.45;;;6.37;;
68300;SDS011;55146;47.468;18.806;2023-05-07T00:26:50;9.40;;;5.90;;
68300;SDS011;55146;47.468;18.806;2023-05-07T00:29:17;12.25;;;7.00;;
68300;SDS011;55146;47.468;18.806;2023-05-07T00:31:42;10.53;;;7.00;;
68300;SDS011;55146;47.468;18.806;2023-05-07T00:34:08;10.00;;;6.13;;
68300;SDS011;55146;47.468;18.806;2023-05-07T00:36:33;8.27;;;6.13;;
68300;SDS011;55146;47.468;18.806;2023-05-07T00:38:59;9.03;;;5.93;;
68300;SDS011;55146;47.468;18.806;2023-05-07T00:41:26;9.60;;;6.00;;
68300;SDS011;55146;47.468;18.806;2023-05-07T00:43:52;8.73;;;5.90;;
68300;SDS011;55146;47.468;18.806;2023-05-07T00:46:19;10.33;;;6.63;;
68300;SDS011;55146;47.468;18.806;2023-05-07T00:48:45;9.82;;;6.50;;
68300;SDS011;55146;47.468;18.806;2023-05-07T00:51:11;8.85;;;5.70;;
68300;SDS011;55146;47.468;18.806;2023-05-07T00:53:37;8.03;;;5.90;;
68300;SDS011;55146;47.468;18.806;2023-05-07T00:56:02;9.48;;;5.70;;
68300;SDS011;55146;47.468;18.806;2023-05-07T00:58:28;10.10;;;5.93;;
68300;SDS011;55146;47.468;18.806;2023-05-07T01:00:55;9.75;;;6.37;;
68300;SDS011;55146;47.468;18.806;2023-05-07T01:03:20;7.83;;;5.17;;
68300;SDS011;55146;47.468;18.806;2023-05-07T01:05:46;7.80;;;5.80;;
68300;SDS011;55146;47.468;18.806;2023-05-07T01:08:13;9.43;;;6.40;;
68300;SDS011;55146;47.468;18.806;2023-05-07T01:10:40;8.82;;;6.35;;
68300;SDS011;55146;47.468;18.806;2023-05-07T01:13:08;7.35;;;5.50;;
68300;SDS011;55146;47.468;18.806;2023-05-07T01:15:35;9.80;;;5.82;;
68300;SDS011;55146;47.468;18.806;2023-05-07T01:18:01;8.73;;;5.65;;
68300;SDS011;55146;47.468;18.806;2023-05-07T01:20:27;8.47;;;5.80;;
68300;SDS011;55146;47.468;18.806;2023-05-07T01:22:53;7.62;;;4.95;;
68300;SDS011;55146;47.468;18.806;2023-05-07T01:25:20;7.12;;;5.28;;
68300;SDS011;55146;47.468;18.806;2023-05-07T01:27:46;9.40;;;5.60;;
68300;SDS011;55146;47.468;18.806;2023-05-07T01:30:11;8.17;;;5.57;;
68300;SDS011;55146;47.468;18.806;2023-05-07T01:35:09;8.18;;;5.72;;
68300;SDS011;55146;47.468;18.806;2023-05-07T01:37:36;7.47;;;5.68;;
68300;SDS011;55146;47.468;18.806;2023-05-07T01:40:03;7.07;;;4.90;;
68300;SDS011;55146;47.468;18.806;2023-05-07T01:42:29;9.52;;;5.50;;
68300;SDS011;55146;47.468;18.806;2023-05-07T01:44:55;7.82;;;6.18;;
68300;SDS011;55146;47.468;18.806;2023-05-07T01:47:21;7.53;;;5.27;;
68300;SDS011;55146;47.468;18.806;2023-05-07T01:49:47;8.93;;;5.45;;
68300;SDS011;55146;47.468;18.806;2023-05-07T01:52:12;8.13;;;5.40;;
68300;SDS011;55146;47.468;18.806;2023-05-07T01:54:38;8.63;;;5.33;;
68300;SDS011;55146;47.468;18.806;2023-05-07T01:57:03;7.57;;;5.72;;
68300;SDS011;55146;47.468;18.806;2023-05-07T01:59:28;7.70;;;4.93;;
68300;SDS011;55146;47.468;18.806;2023-05-07T02:01:54;8.10;;;5.70;;
68300;SDS011;55146;47.468;18.806;2023-05-07T02:04:19;8.50;;;5.53;;
68300;SDS011;55146;47.468;18.806;2023-05-07T02:06:44;8.67;;;5.17;;
68300;SDS011;55146;47.468;18.806;2023-05-07T02:09:10;8.43;;;5.85;;
68300;SDS011;55146;47.468;18.806;2023-05-07T02:11:36;8.30;;;4.87;;
68300;SDS011;55146;47.468;18.806;2023-05-07T02:14:01;7.68;;;5.25;;
68300;SDS011;55146;47.468;18.806;2023-05-07T02:16:26;8.40;;;5.17;;
68300;SDS011;55146;47.468;18.806;2023-05-07T02:18:52;7.73;;;5.53;;
68300;SDS011;55146;47.468;18.806;2023-05-07T02:21:17;9.03;;;5.80;;
68300;SDS011;55146;47.468;18.806;2023-05-07T02:23:43;7.77;;;5.50;;
68300;SDS011;55146;47.468;18.806;2023-05-07T02:26:08;8.93;;;5.67;;
68300;SDS011;55146;47.468;18.806;2023-05-07T02:28:33;9.02;;;6.00;;
68300;SDS011;55146;47.468;18.806;2023-05-07T02:31:02;8.80;;;6.17;;
68300;SDS011;55146;47.468;18.806;2023-05-07T02:33:28;10.57;;;6.18;;
68300;SDS011;55146;47.468;18.806;2023-05-07T02:35:53;9.73;;;7.07;;
68300;SDS011;55146;47.468;18.806;2023-05-07T02:38:18;12.70;;;8.50;;
68300;SDS011;55146;47.468;18.806;2023-05-07T02:40:44;11.30;;;7.10;;
68300;SDS011;55146;47.468;18.806;2023-05-07T02:43:09;12.90;;;8.30;;
68300;SDS011;55146;47.468;18.806;2023-05-07T02:45:34;13.57;;;9.27;;
68300;SDS011;55146;47.468;18.806;2023-05-07T02:48:02;11.40;;;7.85;;
68300;SDS011;55146;47.468;18.806;2023-05-07T02:50:28;11.63;;;7.70;;
68300;SDS011;55146;47.468;18.806;2023-05-07T02:52:53;11.37;;;7.70;;
68300;SDS011;55146;47.468;18.806;2023-05-07T02:55:19;9.43;;;7.05;;
68300;SDS011;55146;47.468;18.806;2023-05-07T02:57:44;10.03;;;7.00;;
68300;SDS011;55146;47.468;18.806;2023-05-07T03:00:11;9.50;;;6.50;;
68300;SDS011;55146;47.468;18.806;2023-05-07T03:02:40;9.38;;;7.18;;
68300;SDS011;55146;47.468;18.806;2023-05-07T03:05:06;9.93;;;6.60;;
68300;SDS011;55146;47.468;18.806;2023-05-07T03:07:31;8.37;;;5.53;;
68300;SDS011;55146;47.468;18.806;2023-05-07T03:09:57;8.77;;;5.90;;
68300;SDS011;55146;47.468;18.806;2023-05-07T03:12:22;8.10;;;5.77;;
68300;SDS011;55146;47.468;18.806;2023-05-07T03:14:48;10.00;;;6.60;;
68300;SDS011;55146;47.468;18.806;2023-05-07T03:17:13;9.63;;;5.97;;
68300;SDS011;55146;47.468;18.806;2023-05-07T03:19:38;9.37;;;6.63;;
68300;SDS011;55146;47.468;18.806;2023-05-07T03:22:04;10.93;;;6.73;;
68300;SDS011;55146;47.468;18.806;2023-05-07T03:24:29;11.57;;;6.93;;
68300;SDS011;55146;47.468;18.806;2023-05-07T03:26:54;9.43;;;6.62;;
68300;SDS011;55146;47.468;18.806;2023-05-07T03:29:20;8.60;;;6.03;;
68300;SDS011;55146;47.468;18.806;2023-05-07T03:31:45;9.13;;;6.63;;
68300;SDS011;55146;47.468;18.806;2023-05-07T03:34:11;10.10;;;6.33;;
68300;SDS011;55146;47.468;18.806;2023-05-07T03:36:36;11.80;;;6.70;;
68300;SDS011;55146;47.468;18.806;2023-05-07T03:39:01;9.82;;;6.00;;
68300;SDS011;55146;47.468;18.806;2023-05-07T03:41:27;9.50;;;6.43;;
68300;SDS011;55146;47.468;18.806;2023-05-07T03:43:52;9.17;;;6.40;;
68300;SDS011;55146;47.468;18.806;2023-05-07T03:46:18;9.40;;;6.60;;
68300;SDS011;55146;47.468;18.806;2023-05-07T03:48:43;10.10;;;7.27;;
68300;SDS011;55146;47.468;18.806;2023-05-07T03:51:09;10.50;;;7.40;;
68300;SDS011;55146;47.468;18.806;2023-05-07T03:53:34;9.13;;;6.57;;
68300;SDS011;55146;47.468;18.806;2023-05-07T03:55:59;9.97;;;7.07;;
68300;SDS011;55146;47.468;18.806;2023-05-07T03:58:25;10.77;;;7.33;;
68300;SDS011;55146;47.468;18.806;2023-05-07T04:00:50;11.52;;;8.10;;
68300;SDS011;55146;47.468;18.806;2023-05-07T04:03:16;9.90;;;6.90;;
68300;SDS011;55146;47.468;18.806;2023-05-07T04:05:41;11.73;;;7.73;;
68300;SDS011;55146;47.468;18.806;2023-05-07T04:08:07;10.30;;;7.77;;
68300;SDS011;55146;47.468;18.806;2023-05-07T04:10:32;10.33;;;8.03;;
68300;SDS011;55146;47.468;18.806;2023-05-07T04:12:57;10.63;;;8.17;;
68300;SDS011;55146;47.468;18.806;2023-05-07T04:15:23;11.10;;;7.73;;
68300;SDS011;55146;47.468;18.806;2023-05-07T04:17:49;11.73;;;8.00;;
68300;SDS011;55146;47.468;18.806;2023-05-07T04:20:15;10.10;;;8.17;;
68300;SDS011;55146;47.468;18.806;2023-05-07T04:22:41;10.77;;;7.72;;
68300;SDS011;55146;47.468;18.806;2023-05-07T04:25:07;10.93;;;7.63;;
68300;SDS011;55146;47.468;18.806;2023-05-07T04:27:34;11.70;;;7.80;;
68300;SDS011;55146;47.468;18.806;2023-05-07T04:30:00;11.35;;;7.18;;
68300;SDS011;55146;47.468;18.806;2023-05-07T04:32:25;10.47;;;7.53;;
68300;SDS011;55146;47.468;18.806;2023-05-07T04:34:51;10.45;;;7.50;;
68300;SDS011;55146;47.468;18.806;2023-05-07T04:37:17;11.60;;;7.67;;
68300;SDS011;55146;47.468;18.806;2023-05-07T04:39:42;12.70;;;7.83;;
68300;SDS011;55146;47.468;18.806;2023-05-07T04:42:07;12.73;;;8.63;;
68300;SDS011;55146;47.468;18.806;2023-05-07T04:44:34;13.87;;;7.83;;
68300;SDS011;55146;47.468;18.806;2023-05-07T04:47:00;11.02;;;7.43;;
68300;SDS011;55146;47.468;18.806;2023-05-07T04:49:25;11.68;;;8.02;;
68300;SDS011;55146;47.468;18.806;2023-05-07T04:51:51;11.60;;;8.00;;
68300;SDS011;55146;47.468;18.806;2023-05-07T04:54:16;13.60;;;8.63;;
68300;SDS011;55146;47.468;18.806;2023-05-07T04:56:41;10.93;;;6.90;;
68300;SDS011;55146;47.468;18.806;2023-05-07T04:59:07;12.52;;;9.15;;
68300;SDS011;55146;47.468;18.806;2023-05-07T05:01:32;16.07;;;9.30;;
68300;SDS011;55146;47.468;18.806;2023-05-07T05:03:58;12.87;;;9.23;;
68300;SDS011;55146;47.468;18.806;2023-05-07T05:06:25;14.73;;;10.40;;
68300;SDS011;55146;47.468;18.806;2023-05-07T05:08:50;15.33;;;10.47;;
68300;SDS011;55146;47.468;18.806;2023-05-07T05:11:15;15.50;;;10.17;;
68300;SDS011;55146;47.468;18.806;2023-05-07T05:13:41;14.50;;;10.18;;
68300;SDS011;55146;47.468;18.806;2023-05-07T05:16:06;12.97;;;8.73;;
68300;SDS011;55146;47.468;18.806;2023-05-07T05:18:32;14.57;;;8.77;;
68300;SDS011;55146;47.468;18.806;2023-05-07T05:20:57;13.80;;;9.83;;
68300;SDS011;55146;47.468;18.806;2023-05-07T05:23:23;12.53;;;8.87;;
68300;SDS011;55146;47.468;18.806;2023-05-07T05:25:48;13.43;;;10.15;;
68300;SDS011;55146;47.468;18.806;2023-05-07T05:28:13;13.23;;;9.73;;
68300;SDS011;55146;47.468;18.806;2023-05-07T05:30:39;13.00;;;8.80;;
68300;SDS011;55146;47.468;18.806;2023-05-07T05:33:05;13.93;;;10.32;;
68300;SDS011;55146;47.468;18.806;2023-05-07T05:35:30;15.37;;;10.13;;
68300;SDS011;55146;47.468;18.806;2023-05-07T05:37:56;15.75;;;11.50;;
68300;SDS011;55146;47.468;18.806;2023-05-07T05:40:22;15.73;;;10.80;;
68300;SDS011;55146;47.468;18.806;2023-05-07T05:42:47;16.50;;;10.10;;
68300;SDS011;55146;47.468;18.806;2023-05-07T05:45:12;15.13;;;10.07;;
68300;SDS011;55146;47.468;18.806;2023-05-07T05:47:38;13.33;;;9.60;;
68300;SDS011;55146;47.468;18.806;2023-05-07T05:50:05;15.25;;;10.02;;
68300;SDS011;55146;47.468;18.806;2023-05-07T05:52:31;14.38;;;9.85;;
68300;SDS011;55146;47.468;18.806;2023-05-07T05:54:56;13.87;;;9.73;;
68300;SDS011;55146;47.468;18.806;2023-05-07T05:57:21;14.70;;;10.83;;
68300;SDS011;55146;47.468;18.806;2023-05-07T05:59:47;14.90;;;9.47;;
68300;SDS011;55146;47.468;18.806;2023-05-07T06:02:12;13.43;;;10.15;;
68300;SDS011;55146;47.468;18.806;2023-05-07T06:04:38;14.10;;;9.83;;
68300;SDS011;55146;47.468;18.806;2023-05-07T06:07:03;14.33;;;11.03;;
68300;SDS011;55146;47.468;18.806;2023-05-07T06:09:28;16.33;;;11.60;;
68300;SDS011;55146;47.468;18.806;2023-05-07T06:11:54;14.00;;;10.53;;
68300;SDS011;55146;47.468;18.806;2023-05-07T06:14:19;15.07;;;10.57;;
68300;SDS011;55146;47.468;18.806;2023-05-07T06:16:44;14.18;;;10.43;;
68300;SDS011;55146;47.468;18.806;2023-05-07T06:19:10;14.37;;;10.03;;
68300;SDS011;55146;47.468;18.806;2023-05-07T06:21:35;14.90;;;10.77;;
68300;SDS011;55146;47.468;18.806;2023-05-07T06:24:01;15.07;;;11.27;;
68300;SDS011;55146;47.468;18.806;2023-05-07T06:26:27;14.30;;;10.38;;
68300;SDS011;55146;47.468;18.806;2023-05-07T06:28:52;13.97;;;9.83;;
68300;SDS011;55146;47.468;18.806;2023-05-07T06:31:18;14.87;;;10.63;;
68300;SDS011;55146;47.468;18.806;2023-05-07T06:33:47;13.65;;;10.38;;
68300;SDS011;55146;47.468;18.806;2023-05-07T06:36:14;14.50;;;11.07;;
68300;SDS011;55146;47.468;18.806;2023-05-07T06:38:39;13.53;;;9.57;;
68300;SDS011;55146;47.468;18.806;2023-05-07T06:41:08;13.20;;;10.40;;
68300;SDS011;55146;47.468;18.806;2023-05-07T06:43:33;13.35;;;10.20;;
68300;SDS011;55146;47.468;18.806;2023-05-07T06:45:58;13.83;;;10.53;;
68300;SDS011;55146;47.468;18.806;2023-05-07T06:48:24;15.07;;;9.90;;
68300;SDS011;55146;47.468;18.806;2023-05-07T06:50:49;14.18;;;11.00;;
68300;SDS011;55146;47.468;18.806;2023-05-07T06:53:15;15.37;;;10.70;;
68300;SDS011;55146;47.468;18.806;2023-05-07T06:55:40;16.53;;;11.47;;
68300;SDS011;55146;47.468;18.806;2023-05-07T06:58:06;16.35;;;11.12;;
68300;SDS011;55146;47.468;18.806;2023-05-07T07:00:32;17.10;;;10.83;;
68300;SDS011;55146;47.468;18.806;2023-05-07T07:02:57;14.97;;;10.77;;
68300;SDS011;55146;47.468;18.806;2023-05-07T07:05:22;13.75;;;10.35;;
68300;SDS011;55146;47.468;18.806;2023-05-07T07:07:48;15.40;;;10.83;;
68300;SDS011;55146;47.468;18.806;2023-05-07T07:10:18;14.93;;;10.88;;
68300;SDS011;55146;47.468;18.806;2023-05-07T07:12:44;16.17;;;11.53;;
68300;SDS011;55146;47.468;18.806;2023-05-07T07:15:10;14.27;;;10.48;;
68300;SDS011;55146;47.468;18.806;2023-05-07T07:17:35;13.17;;;10.10;;
68300;SDS011;55146;47.468;18.806;2023-05-07T07:20:01;15.10;;;11.10;;
68300;SDS011;55146;47.468;18.806;2023-05-07T07:22:27;14.13;;;10.75;;
68300;SDS011;55146;47.468;18.806;2023-05-07T07:24:53;14.50;;;10.83;;
68300;SDS011;55146;47.468;18.806;2023-05-07T07:27:18;16.87;;;11.00;;
68300;SDS011;55146;47.468;18.806;2023-05-07T07:29:43;15.57;;;10.67;;
68300;SDS011;55146;47.468;18.806;2023-05-07T07:32:09;14.87;;;11.07;;
68300;SDS011;55146;47.468;18.806;2023-05-07T07:34:34;12.77;;;9.63;;
68300;SDS011;55146;47.468;18.806;2023-05-07T07:36:59;15.90;;;9.93;;
68300;SDS011;55146;47.468;18.806;2023-05-07T07:39:30;15.15;;;11.50;;
68300;SDS011;55146;47.468;18.806;2023-05-07T07:41:55;15.37;;;10.17;;
68300;SDS011;55146;47.468;18.806;2023-05-07T07:44:21;12.80;;;9.45;;
68300;SDS011;55146;47.468;18.806;2023-05-07T07:46:46;12.93;;;8.73;;
68300;SDS011;55146;47.468;18.806;2023-05-07T07:49:11;12.00;;;8.30;;
68300;SDS011;55146;47.468;18.806;2023-05-07T07:51:37;12.70;;;9.17;;
68300;SDS011;55146;47.468;18.806;2023-05-07T07:54:02;10.33;;;7.90;;
68300;SDS011;55146;47.468;18.806;2023-05-07T07:56:28;16.08;;;8.68;;
68300;SDS011;55146;47.468;18.806;2023-05-07T07:58:53;13.23;;;9.03;;
68300;SDS011;55146;47.468;18.806;2023-05-07T08:01:18;11.97;;;8.87;;
68300;SDS011;55146;47.468;18.806;2023-05-07T08:03:44;12.90;;;9.10;;
68300;SDS011;55146;47.468;18.806;2023-05-07T08:06:10;11.60;;;8.13;;
68300;SDS011;55146;47.468;18.806;2023-05-07T08:08:35;11.97;;;8.47;;
68300;SDS011;55146;47.468;18.806;2023-05-07T08:11:01;11.83;;;7.97;;
68300;SDS011;55146;47.468;18.806;2023-05-07T08:13:26;13.05;;;9.75;;
68300;SDS011;55146;47.468;18.806;2023-05-07T08:15:51;13.30;;;8.67;;
68300;SDS011;55146;47.468;18.806;2023-05-07T08:18:17;11.67;;;8.83;;
68300;SDS011;55146;47.468;18.806;2023-05-07T08:20:42;11.90;;;8.10;;
68300;SDS011;55146;47.468;18.806;2023-05-07T08:23:08;13.10;;;8.68;;
68300;SDS011;55146;47.468;18.806;2023-05-07T08:25:34;12.93;;;8.30;;
68300;SDS011;55146;47.468;18.806;2023-05-07T08:28:00;13.45;;;8.93;;
68300;SDS011;55146;47.468;18.806;2023-05-07T08:30:25;13.60;;;9.00;;
68300;SDS011;55146;47.468;18.806;2023-05-07T08:32:51;12.13;;;8.87;;
68300;SDS011;55146;47.468;18.806;2023-05-07T08:35:16;15.93;;;9.57;;
68300;SDS011;55146;47.468;18.806;2023-05-07T08:37:41;14.63;;;10.13;;
68300;SDS011;55146;47.468;18.806;2023-05-07T08:40:07;13.63;;;9.00;;
68300;SDS011;55146;47.468;18.806;2023-05-07T08:42:35;15.83;;;9.47;;
68300;SDS011;55146;47.468;18.806;2023-05-07T08:45:02;14.35;;;9.77;;
68300;SDS011;55146;47.468;18.806;2023-05-07T08:47:33;12.50;;;9.32;;
68300;SDS011;55146;47.468;18.806;2023-05-07T08:50:04;16.35;;;10.65;;
68300;SDS011;55146;47.468;18.806;2023-05-07T08:52:30;13.38;;;9.80;;
68300;SDS011;55146;47.468;18.806;2023-05-07T08:54:56;13.03;;;8.83;;
68300;SDS011;55146;47.468;18.806;2023-05-07T08:57:21;13.40;;;8.90;;
68300;SDS011;55146;47.468;18.806;2023-05-07T08:59:48;13.57;;;9.73;;
68300;SDS011;55146;47.468;18.806;2023-05-07T09:02:13;15.93;;;9.63;;
68300;SDS011;55146;47.468;18.806;2023-05-07T09:04:39;11.50;;;9.43;;
68300;SDS011;55146;47.468;18.806;2023-05-07T09:07:05;14.47;;;10.47;;
68300;SDS011;55146;47.468;18.806;2023-05-07T09:09:32;14.10;;;10.75;;
68300;SDS011;55146;47.468;18.806;2023-05-07T09:11:57;19.10;;;9.95;;
68300;SDS011;55146;47.468;18.806;2023-05-07T09:14:27;11.93;;;8.53;;
68300;SDS011;55146;47.468;18.806;2023-05-07T09:16:53;13.75;;;9.55;;
68300;SDS011;55146;47.468;18.806;2023-05-07T09:19:22;13.25;;;9.50;;
68300;SDS011;55146;47.468;18.806;2023-05-07T09:21:49;11.63;;;9.15;;
68300;SDS011;55146;47.468;18.806;2023-05-07T09:24:17;11.13;;;7.07;;
68300;SDS011;55146;47.468;18.806;2023-05-07T09:26:43;9.90;;;7.32;;
68300;SDS011;55146;47.468;18.806;2023-05-07T09:29:09;10.70;;;6.80;;
68300;SDS011;55146;47.468;18.806;2023-05-07T09:31:38;8.68;;;6.40;;
68300;SDS011;55146;47.468;18.806;2023-05-07T09:34:06;9.43;;;6.13;;
68300;SDS011;55146;47.468;18.806;2023-05-07T09:36:32;8.98;;;6.78;;
68300;SDS011;55146;47.468;18.806;2023-05-07T09:39:01;9.73;;;7.80;;
68300;SDS011;55146;47.468;18.806;2023-05-07T09:41:26;11.15;;;7.68;;
68300;SDS011;55146;47.468;18.806;2023-05-07T09:43:55;10.63;;;7.73;;
68300;SDS011;55146;47.468;18.806;2023-05-07T09:46:21;10.18;;;8.05;;
68300;SDS011;55146;47.468;18.806;2023-05-07T09:48:52;12.52;;;7.28;;
68300;SDS011;55146;47.468;18.806;2023-05-07T09:51:25;9.50;;;6.68;;
68300;SDS011;55146;47.468;18.806;2023-05-07T09:53:54;12.47;;;7.80;;
68300;SDS011;55146;47.468;18.806;2023-05-07T09:56:21;10.18;;;6.97;;
68300;SDS011;55146;47.468;18.806;2023-05-07T09:58:47;9.93;;;7.45;;
68300;SDS011;55146;47.468;18.806;2023-05-07T10:01:14;9.80;;;6.50;;
68300;SDS011;55146;47.468;18.806;2023-05-07T10:03:42;9.85;;;7.47;;
68300;SDS011;55146;47.468;18.806;2023-05-07T10:06:09;9.80;;;7.03;;
68300;SDS011;55146;47.468;18.806;2023-05-07T10:08:35;8.68;;;7.05;;
68300;SDS011;55146;47.468;18.806;2023-05-07T10:11:02;10.70;;;7.22;;
68300;SDS011;55146;47.468;18.806;2023-05-07T10:13:29;10.23;;;7.45;;
68300;SDS011;55146;47.468;18.806;2023-05-07T10:15:55;10.30;;;7.03;;
68300;SDS011;55146;47.468;18.806;2023-05-07T10:18:21;13.52;;;7.40;;
68300;SDS011;55146;47.468;18.806;2023-05-07T10:20:54;11.95;;;6.78;;
68300;SDS011;55146;47.468;18.806;2023-05-07T10:23:24;10.27;;;6.95;;
68300;SDS011;55146;47.468;18.806;2023-05-07T10:25:52;12.68;;;7.62;;
68300;SDS011;55146;47.468;18.806;2023-05-07T10:28:19;13.93;;;10.23;;
68300;SDS011;55146;47.468;18.806;2023-05-07T10:33:22;11.45;;;8.65;;
68300;SDS011;55146;47.468;18.806;2023-05-07T10:35:52;12.48;;;8.88;;
68300;SDS011;55146;47.468;18.806;2023-05-07T10:38:22;14.23;;;9.88;;
68300;SDS011;55146;47.468;18.806;2023-05-07T10:40:48;10.87;;;8.37;;
68300;SDS011;55146;47.468;18.806;2023-05-07T10:43:13;11.87;;;8.33;;
68300;SDS011;55146;47.468;18.806;2023-05-07T10:45:38;10.67;;;8.23;;
68300;SDS011;55146;47.468;18.806;2023-05-07T10:50:36;9.38;;;7.62;;
68300;SDS011;55146;47.468;18.806;2023-05-07T10:55:43;10.98;;;8.10;;
68300;SDS011;55146;47.468;18.806;2023-05-07T11:00:47;6.55;;;5.32;;
68300;SDS011;55146;47.468;18.806;2023-05-07T11:03:15;7.25;;;4.90;;
68300;SDS011;55146;47.468;18.806;2023-05-07T11:05:40;6.93;;;4.70;;
68300;SDS011;55146;47.468;18.806;2023-05-07T11:08:07;5.47;;;3.53;;
68300;SDS011;55146;47.468;18.806;2023-05-07T11:13:43;6.40;;;4.35;;
68300;SDS011;55146;47.468;18.806;2023-05-07T11:16:19;6.62;;;4.45;;
68300;SDS011;55146;47.468;18.806;2023-05-07T11:18:52;6.45;;;4.40;;
68300;SDS011;55146;47.468;18.806;2023-05-07T11:23:57;5.10;;;3.20;;
68300;SDS011;55146;47.468;18.806;2023-05-07T11:26:23;5.47;;;3.53;;
68300;SDS011;55146;47.468;18.806;2023-05-07T11:28:50;5.60;;;3.92;;
68300;SDS011;55146;47.468;18.806;2023-05-07T11:31:20;6.43;;;4.20;;
68300;SDS011;55146;47.468;18.806;2023-05-07T11:33:47;7.10;;;4.87;;
68300;SDS011;55146;47.468;18.806;2023-05-07T11:36:13;6.07;;;4.40;;
68300;SDS011;55146;47.468;18.806;2023-05-07T11:38:38;8.60;;;3.63;;
68300;SDS011;55146;47.468;18.806;2023-05-07T11:41:04;8.20;;;3.95;;
68300;SDS011;55146;47.468;18.806;2023-05-07T11:43:30;5.83;;;4.00;;
68300;SDS011;55146;47.468;18.806;2023-05-07T11:46:04;5.15;;;3.17;;
68300;SDS011;55146;47.468;18.806;2023-05-07T11:48:31;5.95;;;4.37;;
68300;SDS011;55146;47.468;18.806;2023-05-07T11:53:36;7.15;;;3.92;;
68300;SDS011;55146;47.468;18.806;2023-05-07T11:56:10;5.90;;;3.95;;
68300;SDS011;55146;47.468;18.806;2023-05-07T11:58:36;6.18;;;4.65;;
68300;SDS011;55146;47.468;18.806;2023-05-07T12:01:02;5.87;;;3.87;;
68300;SDS011;55146;47.468;18.806;2023-05-07T12:03:28;6.10;;;4.05;;
68300;SDS011;55146;47.468;18.806;2023-05-07T12:05:54;6.73;;;4.63;;
68300;SDS011;55146;47.468;18.806;2023-05-07T12:08:20;6.28;;;4.03;;
68300;SDS011;55146;47.468;18.806;2023-05-07T12:10:46;6.20;;;4.97;;
68300;SDS011;55146;47.468;18.806;2023-05-07T12:15:42;6.35;;;4.35;;
68300;SDS011;55146;47.468;18.806;2023-05-07T12:18:08;6.68;;;5.05;;
68300;SDS011;55146;47.468;18.806;2023-05-07T12:20:34;6.07;;;4.00;;
68300;SDS011;55146;47.468;18.806;2023-05-07T12:23:01;7.18;;;3.92;;
68300;SDS011;55146;47.468;18.806;2023-05-07T12:25:29;7.18;;;4.72;;
68300;SDS011;55146;47.468;18.806;2023-05-07T12:28:05;5.53;;;4.07;;
68300;SDS011;55146;47.468;18.806;2023-05-07T12:30:37;6.00;;;4.45;;
68300;SDS011;55146;47.468;18.806;2023-05-07T12:33:03;5.20;;;3.73;;
68300;SDS011;55146;47.468;18.806;2023-05-07T12:35:30;7.05;;;4.68;;
68300;SDS011;55146;47.468;18.806;2023-05-07T12:37:57;7.18;;;3.95;;
68300;SDS011;55146;47.468;18.806;2023-05-07T12:40:25;6.72;;;3.70;;
68300;SDS011;55146;47.468;18.806;2023-05-07T12:43:01;5.57;;;3.97;;
68300;SDS011;55146;47.468;18.806;2023-05-07T12:45:26;6.05;;;4.40;;
68300;SDS011;55146;47.468;18.806;2023-05-07T12:47:52;6.17;;;4.53;;
68300;SDS011;55146;47.468;18.806;2023-05-07T12:50:17;5.90;;;4.40;;
68300;SDS011;55146;47.468;18.806;2023-05-07T12:52:43;6.40;;;3.77;;
68300;SDS011;55146;47.468;18.806;2023-05-07T12:55:12;6.25;;;3.40;;
68300;SDS011;55146;47.468;18.806;2023-05-07T12:57:41;7.97;;;4.55;;
68300;SDS011;55146;47.468;18.806;2023-05-07T13:00:08;6.72;;;4.32;;
68300;SDS011;55146;47.468;18.806;2023-05-07T13:02:37;5.70;;;4.10;;
68300;SDS011;55146;47.468;18.806;2023-05-07T13:05:03;6.33;;;3.80;;
68300;SDS011;55146;47.468;18.806;2023-05-07T13:07:29;5.32;;;3.50;;
68300;SDS011;55146;47.468;18.806;2023-05-07T13:09:54;6.07;;;4.40;;
68300;SDS011;55146;47.468;18.806;2023-05-07T13:12:20;5.47;;;4.47;;
68300;SDS011;55146;47.468;18.806;2023-05-07T13:14:45;6.80;;;3.30;;
68300;SDS011;55146;47.468;18.806;2023-05-07T13:17:11;5.30;;;3.77;;
68300;SDS011;55146;47.468;18.806;2023-05-07T13:19:36;5.83;;;4.00;;
68300;SDS011;55146;47.468;18.806;2023-05-07T13:22:02;5.50;;;3.90;;
68300;SDS011;55146;47.468;18.806;2023-05-07T13:24:28;5.63;;;3.70;;
68300;SDS011;55146;47.468;18.806;2023-05-07T13:26:53;6.95;;;3.42;;
68300;SDS011;55146;47.468;18.806;2023-05-07T13:29:18;6.70;;;4.70;;
68300;SDS011;55146;47.468;18.806;2023-05-07T13:31:44;5.67;;;4.17;;
68300;SDS011;55146;47.468;18.806;2023-05-07T13:34:10;7.83;;;5.20;;
68300;SDS011;55146;47.468;18.806;2023-05-07T13:36:35;8.43;;;5.18;;
68300;SDS011;55146;47.468;18.806;2023-05-07T13:39:04;6.03;;;4.12;;
68300;SDS011;55146;47.468;18.806;2023-05-07T13:41:29;6.17;;;4.30;;
68300;SDS011;55146;47.468;18.806;2023-05-07T13:43:55;7.63;;;4.90;;
68300;SDS011;55146;47.468;18.806;2023-05-07T13:46:21;6.87;;;3.85;;
68300;SDS011;55146;47.468;18.806;2023-05-07T13:48:47;6.10;;;4.77;;
68300;SDS011;55146;47.468;18.806;2023-05-07T13:51:12;6.10;;;4.47;;
68300;SDS011;55146;47.468;18.806;2023-05-07T13:53:38;7.93;;;5.87;;
68300;SDS011;55146;47.468;18.806;2023-05-07T13:56:03;5.73;;;3.63;;
68300;SDS011;55146;47.468;18.806;2023-05-07T13:58:29;6.37;;;4.18;;
68300;SDS011;55146;47.468;18.806;2023-05-07T14:00:55;5.83;;;4.10;;
68300;SDS011;55146;47.468;18.806;2023-05-07T14:03:21;6.07;;;3.90;;
68300;SDS011;55146;47.468;18.806;2023-05-07T14:05:46;6.67;;;4.13;;
68300;SDS011;55146;47.468;18.806;2023-05-07T14:08:12;6.28;;;4.75;;
68300;SDS011;55146;47.468;18.806;2023-05-07T14:10:39;9.07;;;5.57;;
68300;SDS011;55146;47.468;18.806;2023-05-07T14:13:05;7.80;;;4.95;;
68300;SDS011;55146;47.468;18.806;2023-05-07T14:15:30;7.57;;;5.05;;
68300;SDS011;55146;47.468;18.806;2023-05-07T14:17:58;8.80;;;4.37;;
68300;SDS011;55146;47.468;18.806;2023-05-07T14:20:24;7.78;;;4.90;;
68300;SDS011;55146;47.468;18.806;2023-05-07T14:22:50;9.02;;;5.55;;
68300;SDS011;55146;47.468;18.806;2023-05-07T14:25:15;8.17;;;5.70;;
68300;SDS011;55146;47.468;18.806;2023-05-07T14:27:41;9.00;;;6.25;;
68300;SDS011;55146;47.468;18.806;2023-05-07T14:30:07;8.03;;;5.40;;
68300;SDS011;55146;47.468;18.806;2023-05-07T14:32:33;9.65;;;6.15;;
68300;SDS011;55146;47.468;18.806;2023-05-07T14:34:58;8.40;;;5.67;;
68300;SDS011;55146;47.468;18.806;2023-05-07T14:37:24;8.48;;;5.68;;
68300;SDS011;55146;47.468;18.806;2023-05-07T14:39:49;9.20;;;5.03;;
68300;SDS011;55146;47.468;18.806;2023-05-07T14:42:14;7.77;;;4.77;;